Mercator — FGG9060 — position and weather

sailwx.info

Track history (hours):
 
Tides and Currents Weather Stations Pressure Air Temp Water Temp Dewpoint Dewpoint Depression Visibility Wind Speed Wind Dir Waves Ship Positions

Mercator

Last reported at 2018-May-23 10:53 UTC. Time now 2018-May-25 18:53 UTC.
Position N 47°44' W 003°60'.

Length 17 m; draft 2 m.

MMSI: 227060690.

Date/timePositionNaut miles runAvg speedWind from/ knotsBaromVisibWave heightAir tempDewpointWater temp
2018-May-23 10:53N 47°44' W 003°60'8 0.8
2018-May-23 00:12N 47°52' W 003°59'7 0.7
2018-May-22 13:28N 47°46' W 003°52'4 8.1
2018-May-22 13:00N 47°44' W 003°47'4 8.1
2018-May-22 12:31N 47°41' W 003°43'4 8.2
2018-May-22 12:01N 47°39' W 003°38'4 8.2
2018-May-22 11:31N 47°36' W 003°34'4 8.1
2018-May-22 11:01N 47°33' W 003°29'4 7.6
2018-May-22 10:30N 47°31' W 003°25'4 8.0
2018-May-22 10:01N 47°28' W 003°21'4 7.7
2018-May-22 09:31N 47°25' W 003°17'4 7.3
2018-May-22 09:01N 47°23' W 003°13'0 0.0
2018-May-21 15:43N 47°22' W 003°13'0 0.0
2018-May-21 15:25N 47°22' W 003°13'0 0.0
2018-May-21 14:58N 47°22' W 003°13'0 0.7
2018-May-21 14:30N 47°23' W 003°12'3 6.9
2018-May-21 14:00N 47°21' W 003°08'4 7.9
2018-May-21 13:30N 47°19' W 003°03'4 7.6
2018-May-21 13:00N 47°16' W 002°59'4 7.9
2018-May-21 12:29N 47°13' W 002°56'34 8.1
2018-May-21 08:14N 46°46' W 002°24'3 7.7
2018-May-21 07:54N 46°44' W 002°21'  
2018-May-18 10:50N 46°39' W 002°09'3 8.2
2018-May-18 10:29N 46°37' W 002°06'4 8.2
2018-May-18 10:00N 46°35' W 002°01'4 8.2
2018-May-18 09:30N 46°32' W 001°57'4 8.8
2018-May-18 09:00N 46°29' W 001°52'3 5.5
2018-May-18 08:30N 46°30' W 001°48'0 0.0
2018-May-18 07:58N 46°30' W 001°48'0 0.1
2018-May-18 07:28N 46°30' W 001°48'0 0.0
2018-May-18 06:58N 46°30' W 001°48'0 0.0
2018-May-18 06:28N 46°30' W 001°48'0 0.0
2018-May-18 05:58N 46°30' W 001°48'0 0.0
2018-May-18 05:28N 46°30' W 001°48'0 0.0
2018-May-18 04:58N 46°30' W 001°48'0 0.0
2018-May-18 04:28N 46°30' W 001°48'0 0.0
2018-May-18 03:58N 46°30' W 001°48'0 0.0
2018-May-18 03:28N 46°30' W 001°48'0 0.0
2018-May-18 02:58N 46°30' W 001°48'0 0.0
2018-May-18 02:28N 46°30' W 001°48'0 0.0
2018-May-18 01:58N 46°30' W 001°48'0 0.0
2018-May-18 01:28N 46°30' W 001°48'0 0.0
2018-May-18 00:58N 46°30' W 001°48'0 0.0
2018-May-18 00:27N 46°30' W 001°48'0 0.0
2018-May-18 00:00N 46°30' W 001°48'0 0.0
2018-May-17 23:30N 46°30' W 001°48'0 0.0
2018-May-17 23:00N 46°30' W 001°48'0 0.0
2018-May-17 22:30N 46°30' W 001°48'0 0.0
2018-May-17 22:00N 46°30' W 001°48'0 0.0
2018-May-17 21:30N 46°30' W 001°48'0 0.0
2018-May-17 21:00N 46°30' W 001°48'0 0.0
2018-May-17 20:30N 46°30' W 001°48'0 0.0
2018-May-17 20:00N 46°30' W 001°48'0 0.0
2018-May-17 19:30N 46°30' W 001°48'2 3.9
2018-May-17 19:00N 46°28' W 001°46'4 8.6
2018-May-17 18:30N 46°25' W 001°42'4 8.4
2018-May-17 18:00N 46°23' W 001°37'6 8.3
2018-May-17 17:21N 46°19' W 001°31'4 8.2
2018-May-17 16:49N 46°17' W 001°26'3 8.1
2018-May-17 16:30N 46°15' W 001°23'4 8.0
2018-May-17 16:00N 46°12' W 001°19'4 7.8
2018-May-17 15:30N 46°10' W 001°15'3 6.4
2018-May-17 15:00N 46°09' W 001°10'1 1.6
2018-May-17 14:30N 46°09' W 001°09'0 0.0
2018-May-17 14:00N 46°09' W 001°09'0 0.0
2018-May-17 13:30N 46°09' W 001°09'0 0.0
2018-May-17 13:00N 46°09' W 001°09'0 0.0
2018-May-17 12:30N 46°09' W 001°09'0 0.0
2018-May-17 12:00N 46°09' W 001°09'0 0.0
2018-May-17 11:30N 46°09' W 001°09'0 0.0
2018-May-17 11:00N 46°09' W 001°09'0 0.0
2018-May-17 10:30N 46°09' W 001°09'0 0.0
2018-May-17 10:00N 46°09' W 001°09'0 0.0
2018-May-17 09:30N 46°09' W 001°09'0 0.0
2018-May-17 09:00N 46°09' W 001°09'0 0.0
2018-May-17 08:30N 46°09' W 001°09'0 0.0
2018-May-17 08:00N 46°09' W 001°09'0 0.0
2018-May-17 07:30N 46°09' W 001°09'0 0.0
2018-May-17 07:00N 46°09' W 001°09'0 0.0
2018-May-17 06:30N 46°09' W 001°09'0 0.0
2018-May-17 06:00N 46°09' W 001°09'0 0.0
2018-May-17 05:30N 46°09' W 001°09'0 0.0
2018-May-17 05:00N 46°09' W 001°09'0 0.0
2018-May-17 04:30N 46°09' W 001°09'0 0.0
2018-May-17 04:00N 46°09' W 001°09'0 0.0
2018-May-17 03:30N 46°09' W 001°09'0 0.0
2018-May-17 03:00N 46°09' W 001°09'0 0.0
2018-May-17 02:30N 46°09' W 001°09'0 0.0
2018-May-17 02:00N 46°09' W 001°09'0 0.0
2018-May-17 01:30N 46°09' W 001°09'0 0.0
2018-May-17 01:00N 46°09' W 001°09'0 0.0
2018-May-17 00:30N 46°09' W 001°09'0 0.0
2018-May-17 00:00N 46°09' W 001°09'0 0.0
2018-May-16 23:30N 46°09' W 001°09'0 0.0
2018-May-16 23:00N 46°09' W 001°09'0 0.0
2018-May-16 22:30N 46°09' W 001°09'0 0.0
2018-May-16 22:00N 46°09' W 001°09'0 0.0
2018-May-16 21:30N 46°09' W 001°09'0 0.0
2018-May-16 21:00N 46°09' W 001°09'0 0.0
2018-May-16 20:30N 46°09' W 001°09'0 0.0
2018-May-16 20:00N 46°09' W 001°09'0 0.0
2018-May-16 19:30N 46°09' W 001°09'0 0.0
2018-May-16 19:00N 46°09' W 001°09'0 0.0
2018-May-16 18:30N 46°09' W 001°09'0 0.0
2018-May-16 18:00N 46°09' W 001°09'  
Track history (hours):
 
Tides and Currents Weather Stations Pressure Air Temp Water Temp Dewpoint Dewpoint Depression Visibility Wind Speed Wind Dir Waves Ship Positions

Mercator

Last reported at 2018-May-23 10:53 UTC. Time now 2018-May-25 18:53 UTC.
Position N 47°44' W 003°60'.

Length 17 m; draft 2 m.

MMSI: 227060690.

Date/timePositionNaut miles runAvg speedWind from/ knotsBaromVisibWave heightAir tempDewpointWater temp
2018-May-23 10:53N 47°44' W 003°60'8 0.8
2018-May-23 00:12N 47°52' W 003°59'7 0.7
2018-May-22 13:28N 47°46' W 003°52'4 8.1
2018-May-22 13:00N 47°44' W 003°47'4 8.1
2018-May-22 12:31N 47°41' W 003°43'4 8.2
2018-May-22 12:01N 47°39' W 003°38'4 8.2
2018-May-22 11:31N 47°36' W 003°34'4 8.1
2018-May-22 11:01N 47°33' W 003°29'4 7.6
2018-May-22 10:30N 47°31' W 003°25'4 8.0
2018-May-22 10:01N 47°28' W 003°21'4 7.7
2018-May-22 09:31N 47°25' W 003°17'4 7.3
2018-May-22 09:01N 47°23' W 003°13'0 0.0
2018-May-21 15:43N 47°22' W 003°13'0 0.0
2018-May-21 15:25N 47°22' W 003°13'0 0.0
2018-May-21 14:58N 47°22' W 003°13'0 0.7
2018-May-21 14:30N 47°23' W 003°12'3 6.9
2018-May-21 14:00N 47°21' W 003°08'4 7.9
2018-May-21 13:30N 47°19' W 003°03'4 7.6
2018-May-21 13:00N 47°16' W 002°59'4 7.9
2018-May-21 12:29N 47°13' W 002°56'34 8.1
2018-May-21 08:14N 46°46' W 002°24'3 7.7
2018-May-21 07:54N 46°44' W 002°21'  
2018-May-18 10:50N 46°39' W 002°09'3 8.2
2018-May-18 10:29N 46°37' W 002°06'4 8.2
2018-May-18 10:00N 46°35' W 002°01'4 8.2
2018-May-18 09:30N 46°32' W 001°57'4 8.8
2018-May-18 09:00N 46°29' W 001°52'3 5.5
2018-May-18 08:30N 46°30' W 001°48'0 0.0
2018-May-18 07:58N 46°30' W 001°48'0 0.1
2018-May-18 07:28N 46°30' W 001°48'0 0.0
2018-May-18 06:58N 46°30' W 001°48'0 0.0
2018-May-18 06:28N 46°30' W 001°48'0 0.0
2018-May-18 05:58N 46°30' W 001°48'0 0.0
2018-May-18 05:28N 46°30' W 001°48'0 0.0
2018-May-18 04:58N 46°30' W 001°48'0 0.0
2018-May-18 04:28N 46°30' W 001°48'0 0.0
2018-May-18 03:58N 46°30' W 001°48'0 0.0
2018-May-18 03:28N 46°30' W 001°48'0 0.0
2018-May-18 02:58N 46°30' W 001°48'0 0.0
2018-May-18 02:28N 46°30' W 001°48'0 0.0
2018-May-18 01:58N 46°30' W 001°48'0 0.0
2018-May-18 01:28N 46°30' W 001°48'0 0.0
2018-May-18 00:58N 46°30' W 001°48'0 0.0
2018-May-18 00:27N 46°30' W 001°48'0 0.0
2018-May-18 00:00N 46°30' W 001°48'0 0.0
2018-May-17 23:30N 46°30' W 001°48'0 0.0
2018-May-17 23:00N 46°30' W 001°48'0 0.0
2018-May-17 22:30N 46°30' W 001°48'0 0.0
2018-May-17 22:00N 46°30' W 001°48'0 0.0
2018-May-17 21:30N 46°30' W 001°48'0 0.0
2018-May-17 21:00N 46°30' W 001°48'0 0.0
2018-May-17 20:30N 46°30' W 001°48'0 0.0
2018-May-17 20:00N 46°30' W 001°48'0 0.0
2018-May-17 19:30N 46°30' W 001°48'2 3.9
2018-May-17 19:00N 46°28' W 001°46'4 8.6
2018-May-17 18:30N 46°25' W 001°42'4 8.4
2018-May-17 18:00N 46°23' W 001°37'6 8.3
2018-May-17 17:21N 46°19' W 001°31'4 8.2
2018-May-17 16:49N 46°17' W 001°26'3 8.1
2018-May-17 16:30N 46°15' W 001°23'4 8.0
2018-May-17 16:00N 46°12' W 001°19'4 7.8
2018-May-17 15:30N 46°10' W 001°15'3 6.4
2018-May-17 15:00N 46°09' W 001°10'1 1.6
2018-May-17 14:30N 46°09' W 001°09'0 0.0
2018-May-17 14:00N 46°09' W 001°09'0 0.0
2018-May-17 13:30N 46°09' W 001°09'0 0.0
2018-May-17 13:00N 46°09' W 001°09'0 0.0
2018-May-17 12:30N 46°09' W 001°09'0 0.0
2018-May-17 12:00N 46°09' W 001°09'0 0.0
2018-May-17 11:30N 46°09' W 001°09'0 0.0
2018-May-17 11:00N 46°09' W 001°09'0 0.0
2018-May-17 10:30N 46°09' W 001°09'0 0.0
2018-May-17 10:00N 46°09' W 001°09'0 0.0
2018-May-17 09:30N 46°09' W 001°09'0 0.0
2018-May-17 09:00N 46°09' W 001°09'0 0.0
2018-May-17 08:30N 46°09' W 001°09'0 0.0
2018-May-17 08:00N 46°09' W 001°09'0 0.0
2018-May-17 07:30N 46°09' W 001°09'0 0.0
2018-May-17 07:00N 46°09' W 001°09'0 0.0
2018-May-17 06:30N 46°09' W 001°09'0 0.0
2018-May-17 06:00N 46°09' W 001°09'0 0.0
2018-May-17 05:30N 46°09' W 001°09'0 0.0
2018-May-17 05:00N 46°09' W 001°09'0 0.0
2018-May-17 04:30N 46°09' W 001°09'0 0.0
2018-May-17 04:00N 46°09' W 001°09'0 0.0
2018-May-17 03:30N 46°09' W 001°09'0 0.0
2018-May-17 03:00N 46°09' W 001°09'0 0.0
2018-May-17 02:30N 46°09' W 001°09'0 0.0
2018-May-17 02:00N 46°09' W 001°09'0 0.0
2018-May-17 01:30N 46°09' W 001°09'0 0.0
2018-May-17 01:00N 46°09' W 001°09'0 0.0
2018-May-17 00:30N 46°09' W 001°09'0 0.0
2018-May-17 00:00N 46°09' W 001°09'0 0.0
2018-May-16 23:30N 46°09' W 001°09'0 0.0
2018-May-16 23:00N 46°09' W 001°09'0 0.0
2018-May-16 22:30N 46°09' W 001°09'0 0.0
2018-May-16 22:00N 46°09' W 001°09'0 0.0
2018-May-16 21:30N 46°09' W 001°09'0 0.0
2018-May-16 21:00N 46°09' W 001°09'0 0.0
2018-May-16 20:30N 46°09' W 001°09'0 0.0
2018-May-16 20:00N 46°09' W 001°09'0 0.0
2018-May-16 19:30N 46°09' W 001°09'0 0.0
2018-May-16 19:00N 46°09' W 001°09'0 0.0
2018-May-16 18:30N 46°09' W 001°09'0 0.0
2018-May-16 18:00N 46°09' W 001°09'  

Dump ship's entire track history